createdAt,value
2018-06-05T00:01:29.170Z,16.50
2018-06-05T00:03:59.269Z,16.50
2018-06-05T00:06:29.341Z,16.50
2018-06-05T00:08:59.496Z,16.50
2018-06-05T00:11:29.563Z,16.50
2018-06-05T00:13:59.628Z,16.40
2018-06-05T00:16:29.702Z,16.30
2018-06-05T00:18:59.832Z,16.20
2018-06-05T00:21:29.925Z,16.30
2018-06-05T00:24:00.107Z,16.30
2018-06-05T00:26:30.253Z,16.30
2018-06-05T00:29:00.012Z,16.20
2018-06-05T00:31:29.987Z,16.10
2018-06-05T00:34:00.052Z,16.00
2018-06-05T00:36:30.158Z,15.90
2018-06-05T00:39:00.220Z,16.00
2018-06-05T00:41:30.318Z,15.90
2018-06-05T00:44:00.399Z,15.80
2018-06-05T00:46:30.489Z,15.80
2018-06-05T00:49:00.583Z,15.80
2018-06-05T00:51:47.527Z,15.80
2018-06-05T00:54:17.587Z,15.60
2018-06-05T00:56:47.656Z,15.70
2018-06-05T00:59:17.746Z,15.60
2018-06-05T01:01:47.828Z,15.60
2018-06-05T01:04:17.914Z,15.70
2018-06-05T01:06:48.003Z,15.70
2018-06-05T01:09:18.078Z,15.60
2018-06-05T01:11:48.163Z,15.50
2018-06-05T01:14:18.325Z,15.50
2018-06-05T01:16:48.417Z,15.50
2018-06-05T01:19:18.476Z,15.30
2018-06-05T01:21:48.695Z,15.50
2018-06-05T01:24:18.756Z,15.50
2018-06-05T01:26:48.899Z,15.50
2018-06-05T01:29:18.947Z,15.60
2018-06-05T01:31:49.037Z,15.50
2018-06-05T01:34:19.112Z,15.50
2018-06-05T01:36:49.208Z,15.40
2018-06-05T01:39:18.994Z,15.30
2018-06-05T01:41:48.968Z,15.40
2018-06-05T01:44:19.135Z,15.30
2018-06-05T01:46:49.212Z,15.50
2018-06-05T01:49:19.296Z,15.50
2018-06-05T01:51:49.353Z,15.50
2018-06-05T01:54:19.512Z,15.50
2018-06-05T01:56:49.631Z,15.50
2018-06-05T01:59:19.720Z,15.50
2018-06-05T02:01:49.806Z,15.40
2018-06-05T02:04:19.876Z,15.50
2018-06-05T02:06:49.986Z,15.50
2018-06-05T02:09:20.065Z,15.40
2018-06-05T02:11:50.199Z,15.40
2018-06-05T02:14:20.307Z,15.30
2018-06-05T02:16:50.368Z,15.30
2018-06-05T02:19:20.452Z,15.30
2018-06-05T02:21:50.230Z,15.20
2018-06-05T02:24:20.252Z,15.20
2018-06-05T02:26:50.320Z,15.10
2018-06-05T02:29:20.419Z,15.10
2018-06-05T02:31:50.489Z,15.20
2018-06-05T02:34:20.575Z,15.20
2018-06-05T02:36:50.383Z,15.20
2018-06-05T02:39:20.372Z,15.30
2018-06-05T02:41:50.450Z,15.20
2018-06-05T02:44:20.532Z,15.30
2018-06-05T02:46:50.615Z,15.30
2018-06-05T02:49:20.708Z,15.30
2018-06-05T02:51:50.788Z,15.30
2018-06-05T02:54:20.878Z,15.30
2018-06-05T02:56:50.985Z,15.30
2018-06-05T02:59:21.080Z,15.30
2018-06-05T03:01:51.142Z,15.30
2018-06-05T03:04:21.240Z,15.20
2018-06-05T03:06:51.299Z,15.20
2018-06-05T03:09:21.384Z,15.30
2018-06-05T03:11:51.483Z,15.30
2018-06-05T03:14:21.585Z,15.20
2018-06-05T03:16:51.652Z,15.30
2018-06-05T03:19:21.736Z,15.20
2018-06-05T03:21:51.807Z,15.30
2018-06-05T03:24:21.579Z,15.10
2018-06-05T03:26:51.566Z,15.20
2018-06-05T03:29:21.636Z,15.10
2018-06-05T03:31:51.752Z,15.20
2018-06-05T03:34:21.820Z,15.20
2018-06-05T03:36:51.956Z,15.30
2018-06-05T03:39:22.094Z,15.20
2018-06-05T03:41:52.190Z,15.20
2018-06-05T03:44:22.288Z,15.30
2018-06-05T03:46:52.384Z,15.40
2018-06-05T03:49:22.457Z,15.30
2018-06-05T03:51:52.512Z,15.30
2018-06-05T03:54:22.707Z,15.30
2018-06-05T03:56:52.775Z,15.40
2018-06-05T03:59:22.960Z,15.50
2018-06-05T04:01:53.046Z,15.50
2018-06-05T04:04:23.179Z,15.50
2018-06-05T04:06:53.215Z,15.60
2018-06-05T04:09:23.328Z,15.90
2018-06-05T04:11:53.450Z,16.20
2018-06-05T04:14:23.580Z,16.20
2018-06-05T04:16:53.639Z,16.20
2018-06-05T04:19:23.722Z,16.30
2018-06-05T04:21:53.825Z,16.40
2018-06-05T04:24:24.029Z,16.50
2018-06-05T04:26:54.132Z,16.60
2018-06-05T04:29:24.198Z,16.70
2018-06-05T04:31:54.318Z,16.80
2018-06-05T04:34:24.400Z,16.80
2018-06-05T04:36:54.492Z,16.90
2018-06-05T04:39:24.303Z,17.00
2018-06-05T04:41:54.287Z,17.30
2018-06-05T04:44:24.372Z,17.60
2018-06-05T04:46:54.510Z,17.70
2018-06-05T04:49:24.596Z,17.80
2018-06-05T04:51:54.685Z,18.00
2018-06-05T04:54:24.756Z,18.50
2018-06-05T04:56:54.856Z,18.60
2018-06-05T04:59:24.939Z,18.80
2018-06-05T05:01:55.036Z,18.80
2018-06-05T05:04:25.137Z,18.60
2018-06-05T05:06:55.180Z,18.60
2018-06-05T05:09:25.276Z,18.60
2018-06-05T05:11:55.363Z,18.50
2018-06-05T05:14:25.503Z,18.40
2018-06-05T05:16:55.600Z,18.40
2018-06-05T05:19:25.724Z,18.30
2018-06-05T05:21:55.912Z,18.30
2018-06-05T05:24:26.097Z,18.50
2018-06-05T05:26:56.200Z,19.00
2018-06-05T05:29:26.248Z,19.60
2018-06-05T05:31:56.373Z,20.20
2018-06-05T05:34:26.439Z,20.60
2018-06-05T05:36:56.520Z,21.10
2018-06-05T05:39:26.629Z,22.20
2018-06-05T05:41:56.692Z,22.50
2018-06-05T05:44:26.812Z,21.90
2018-06-05T05:46:56.916Z,21.60
2018-06-05T05:49:27.008Z,21.40
2018-06-05T05:51:57.124Z,21.00
2018-06-05T05:54:27.189Z,20.90
2018-06-05T05:56:57.289Z,20.70
2018-06-05T05:59:27.353Z,20.60
2018-06-05T06:01:57.460Z,20.60
2018-06-05T06:04:27.524Z,20.80
2018-06-05T06:06:57.612Z,21.80
2018-06-05T06:09:27.695Z,22.10
2018-06-05T06:11:57.780Z,22.90
2018-06-05T06:14:27.852Z,23.20
2018-06-05T06:16:57.935Z,23.10
2018-06-05T06:19:28.012Z,22.90
2018-06-05T06:21:58.124Z,23.00
2018-06-05T06:24:28.200Z,22.50
2018-06-05T06:26:58.292Z,22.60
2018-06-05T06:29:28.360Z,22.70
2018-06-05T06:31:58.460Z,23.40
2018-06-05T06:34:28.527Z,23.60
2018-06-05T06:36:58.599Z,24.40
2018-06-05T06:39:28.705Z,24.90
2018-06-05T06:41:58.784Z,26.10
2018-06-05T06:44:28.868Z,26.30
2018-06-05T06:46:58.975Z,27.10
2018-06-05T06:49:29.060Z,26.40
2018-06-05T06:51:59.156Z,27.40
2018-06-05T06:54:29.233Z,27.20
2018-06-05T06:56:59.377Z,26.90
2018-06-05T06:59:29.457Z,27.10
2018-06-05T07:01:59.540Z,27.10
2018-06-05T07:04:29.604Z,27.60
2018-06-05T07:06:59.732Z,28.50
2018-06-05T07:09:29.791Z,28.60
2018-06-05T07:11:59.867Z,28.60
2018-06-05T07:14:29.940Z,28.80
2018-06-05T07:17:00.067Z,29.00
2018-06-05T07:19:30.140Z,29.10
2018-06-05T07:22:00.235Z,28.70
2018-06-05T07:24:30.320Z,29.10
2018-06-05T07:27:00.417Z,29.70
2018-06-05T07:29:30.513Z,29.80
2018-06-05T07:32:00.602Z,29.30
2018-06-05T07:34:30.706Z,29.20
2018-06-05T07:37:00.815Z,29.40
2018-06-05T07:39:30.919Z,29.40
2018-06-05T07:42:01.092Z,29.40
2018-06-05T07:44:30.890Z,29.50
2018-06-05T07:47:00.879Z,29.70
2018-06-05T07:49:30.973Z,29.60
2018-06-05T07:52:01.065Z,30.00
2018-06-05T07:54:31.168Z,30.00
2018-06-05T07:57:01.240Z,30.20
2018-06-05T07:59:31.333Z,29.80
2018-06-05T08:02:01.392Z,29.20
2018-06-05T08:04:31.459Z,29.20
2018-06-05T08:07:01.619Z,29.50
2018-06-05T08:09:31.728Z,29.30
2018-06-05T08:12:01.813Z,29.10
2018-06-05T08:14:31.895Z,29.40
2018-06-05T08:17:02.024Z,29.00
2018-06-05T08:19:32.121Z,29.20
2018-06-05T08:22:02.240Z,28.90
2018-06-05T08:24:32.432Z,28.70
2018-06-05T08:27:02.462Z,28.70
2018-06-05T08:29:32.563Z,28.70
2018-06-05T08:32:02.616Z,28.70
2018-06-05T08:34:32.760Z,28.60
2018-06-05T08:37:02.814Z,28.80
2018-06-05T08:39:32.891Z,28.60
2018-06-05T08:42:02.980Z,28.70
2018-06-05T08:44:33.133Z,28.30
2018-06-05T08:47:03.236Z,28.60
2018-06-05T08:49:33.353Z,29.10
2018-06-05T08:52:03.437Z,28.90
2018-06-05T08:54:33.532Z,28.70
2018-06-05T08:57:03.621Z,28.60
2018-06-05T08:59:33.679Z,28.60
2018-06-05T09:02:03.455Z,28.50
2018-06-05T09:04:33.416Z,28.10
2018-06-05T09:07:03.532Z,28.00
2018-06-05T09:09:33.588Z,28.00
2018-06-05T09:12:03.700Z,27.60
2018-06-05T09:14:33.777Z,27.70
2018-06-05T09:17:03.868Z,27.90
2018-06-05T09:19:33.975Z,27.80
2018-06-05T09:22:04.099Z,27.90
2018-06-05T09:24:34.185Z,27.80
2018-06-05T09:27:04.280Z,27.80
2018-06-05T09:29:34.425Z,27.50
2018-06-05T09:32:04.597Z,27.50
2018-06-05T09:34:34.722Z,27.40
2018-06-05T09:37:04.777Z,27.50
2018-06-05T09:39:34.895Z,27.30
2018-06-05T09:42:04.967Z,27.50
2018-06-05T09:44:35.080Z,27.60
2018-06-05T09:47:05.167Z,27.70
2018-06-05T09:49:35.251Z,28.00
2018-06-05T09:52:05.418Z,27.90
2018-06-05T09:54:35.473Z,28.00
2018-06-05T09:57:05.608Z,27.60
2018-06-05T09:59:42.292Z,27.60
2018-06-05T10:02:12.371Z,27.40
2018-06-05T10:04:42.444Z,27.30
2018-06-05T10:07:12.536Z,27.30
2018-06-05T10:09:42.646Z,27.40
2018-06-05T10:12:12.728Z,27.30
2018-06-05T10:14:42.816Z,27.00
2018-06-05T10:17:12.892Z,27.20
2018-06-05T10:19:43.015Z,27.30
2018-06-05T10:22:13.099Z,27.20
2018-06-05T10:24:43.192Z,27.10
2018-06-05T10:27:13.264Z,27.10
2018-06-05T10:29:43.326Z,27.10
2018-06-05T10:32:13.397Z,26.90
2018-06-05T10:34:43.499Z,26.90
2018-06-05T10:37:13.565Z,26.60
2018-06-05T10:39:43.669Z,26.60
2018-06-05T10:42:13.740Z,26.90
2018-06-05T10:44:43.932Z,27.10
2018-06-05T10:47:14.005Z,26.90
2018-06-05T10:49:44.152Z,26.90
2018-06-05T10:52:14.304Z,26.80
2018-06-05T10:54:44.400Z,26.90
2018-06-05T10:57:14.463Z,27.00
2018-06-05T10:59:44.533Z,27.00
2018-06-05T11:02:14.629Z,27.10
2018-06-05T11:04:44.696Z,27.00
2018-06-05T11:07:14.813Z,27.00
2018-06-05T11:09:44.892Z,27.00
2018-06-05T11:12:14.991Z,27.00
2018-06-05T11:14:45.140Z,26.90
2018-06-05T11:17:15.225Z,27.00
2018-06-05T11:19:45.334Z,27.00
2018-06-05T11:22:15.419Z,27.10
2018-06-05T11:24:45.516Z,27.30
2018-06-05T11:27:15.600Z,27.30
2018-06-05T11:29:45.683Z,27.30
2018-06-05T11:32:15.772Z,27.20
2018-06-05T11:34:45.848Z,27.30
2018-06-05T11:37:15.949Z,27.40
2018-06-05T11:39:46.088Z,27.40
2018-06-05T11:42:16.164Z,27.30
2018-06-05T11:44:46.250Z,27.50
2018-06-05T11:47:17.535Z,27.50
2018-06-05T11:49:47.688Z,27.60
2018-06-05T11:52:17.860Z,27.70
2018-06-05T11:54:47.924Z,27.80
2018-06-05T11:57:17.997Z,27.50
2018-06-05T11:59:48.077Z,27.60
2018-06-05T12:02:18.203Z,27.50
2018-06-05T12:04:48.276Z,27.50
2018-06-05T12:07:18.415Z,27.40
2018-06-05T12:09:48.524Z,26.80
2018-06-05T12:12:18.624Z,26.30
2018-06-05T12:14:48.687Z,25.50
2018-06-05T12:17:18.794Z,24.30
2018-06-05T12:26:36.668Z,20.10
2018-06-05T12:29:06.767Z,19.70
2018-06-05T12:31:36.904Z,19.30
2018-06-05T12:34:07.027Z,19.10
2018-06-05T12:36:37.116Z,19.10
2018-06-05T12:39:09.581Z,19.00
2018-06-05T12:41:39.674Z,19.00
2018-06-05T12:44:09.764Z,18.80
2018-06-05T12:46:39.944Z,18.80
2018-06-05T12:49:10.036Z,18.60
2018-06-05T12:51:40.196Z,18.50
2018-06-05T12:54:10.242Z,18.30
2018-06-05T12:56:40.352Z,18.30
2018-06-05T12:59:10.460Z,18.00
2018-06-05T13:01:40.575Z,17.90
2018-06-05T13:04:10.640Z,17.90
2018-06-05T13:06:40.737Z,17.90
2018-06-05T13:09:10.817Z,17.80
2018-06-05T13:11:40.929Z,17.80
2018-06-05T13:14:11.013Z,18.00
2018-06-05T13:16:41.133Z,18.00
2018-06-05T13:19:11.218Z,18.00
2018-06-05T13:21:41.303Z,18.10
2018-06-05T13:24:11.383Z,18.00
2018-06-05T13:26:41.496Z,18.20
2018-06-05T13:29:18.416Z,18.20
2018-06-05T13:31:48.521Z,18.20
2018-06-05T13:34:18.597Z,18.40
2018-06-05T13:36:48.700Z,18.40
2018-06-05T13:39:18.916Z,18.50
2018-06-05T13:41:49.014Z,18.60
2018-06-05T13:44:19.107Z,18.70
2018-06-05T13:46:49.176Z,18.90
2018-06-05T13:49:19.278Z,19.00
2018-06-05T13:51:49.424Z,19.10
2018-06-05T13:54:19.536Z,19.20
2018-06-05T13:56:49.620Z,19.30
2018-06-05T13:59:19.757Z,19.40
2018-06-05T14:01:49.831Z,19.50
2018-06-05T14:04:19.913Z,19.60
2018-06-05T14:06:50.000Z,19.70
2018-06-05T14:09:20.170Z,19.70
2018-06-05T14:11:50.183Z,19.70
2018-06-05T14:14:20.260Z,19.70
2018-06-05T14:16:50.395Z,19.90
2018-06-05T14:19:20.478Z,20.10
2018-06-05T14:21:50.558Z,20.30
2018-06-05T14:24:20.667Z,20.40
2018-06-05T14:26:50.745Z,20.50
2018-06-05T14:29:20.900Z,20.70
2018-06-05T14:31:51.060Z,20.90
2018-06-05T14:34:21.136Z,21.10
2018-06-05T14:36:51.224Z,21.20
2018-06-05T14:39:21.316Z,21.30
2018-06-05T14:41:51.437Z,21.30
2018-06-05T14:44:21.509Z,21.30
2018-06-05T14:46:51.588Z,21.30
2018-06-05T14:49:21.713Z,21.40
2018-06-05T14:51:51.819Z,21.40
2018-06-05T14:54:21.909Z,21.40
2018-06-05T14:56:52.023Z,21.50
2018-06-05T14:59:22.099Z,21.50
2018-06-05T15:01:52.205Z,21.60
2018-06-05T15:04:22.307Z,21.60
2018-06-05T15:06:52.440Z,21.60
2018-06-05T15:09:22.546Z,21.60
2018-06-05T15:11:52.695Z,21.50
2018-06-05T15:14:22.819Z,21.60
2018-06-05T15:16:52.928Z,21.50
2018-06-05T15:19:23.148Z,21.60
2018-06-05T15:21:52.966Z,21.60
2018-06-05T15:24:22.959Z,21.50
2018-06-05T15:26:53.068Z,21.50
2018-06-05T15:29:23.169Z,21.40
2018-06-05T15:31:53.273Z,21.30
2018-06-05T15:34:23.352Z,21.20
2018-06-05T15:36:53.477Z,21.20
2018-06-05T15:39:23.614Z,21.10
2018-06-05T15:41:53.743Z,21.00
2018-06-05T15:44:23.837Z,21.00
2018-06-05T15:46:54.032Z,21.00
2018-06-05T15:49:24.120Z,21.00
2018-06-05T15:51:54.234Z,20.90
2018-06-05T15:54:24.324Z,20.90
2018-06-05T15:56:54.504Z,20.90
2018-06-05T15:59:24.607Z,20.90
2018-06-05T16:01:54.764Z,21.00
2018-06-05T16:04:24.879Z,20.90
2018-06-05T16:06:54.984Z,20.90
2018-06-05T16:09:25.083Z,20.90
2018-06-05T16:11:56.184Z,21.00
2018-06-05T16:14:26.299Z,21.00
2018-06-05T16:16:56.387Z,21.00
2018-06-05T16:19:26.516Z,21.00
2018-06-05T16:21:56.584Z,21.00
2018-06-05T16:24:26.748Z,21.00
2018-06-05T16:26:56.928Z,21.00
2018-06-05T16:29:27.008Z,21.00
2018-06-05T16:31:57.116Z,21.00
2018-06-05T16:34:27.196Z,21.10
2018-06-05T16:36:57.321Z,21.10
2018-06-05T16:39:27.437Z,21.10
2018-06-05T16:41:57.618Z,21.10
2018-06-05T16:44:27.802Z,21.10
2018-06-05T16:46:57.896Z,21.10
2018-06-05T16:49:28.027Z,21.10
2018-06-05T16:51:58.110Z,21.10
2018-06-05T16:54:28.204Z,21.10
2018-06-05T16:56:58.368Z,21.10
2018-06-05T16:59:28.498Z,21.00
2018-06-05T17:01:58.602Z,21.00
2018-06-05T17:04:28.753Z,20.90
2018-06-05T17:06:58.828Z,20.90
2018-06-05T17:09:28.916Z,20.90
2018-06-05T17:11:59.032Z,20.90
2018-06-05T17:14:29.166Z,20.80
2018-06-05T17:16:59.276Z,20.80
2018-06-05T17:19:29.361Z,20.70
2018-06-05T17:21:59.470Z,20.70
2018-06-05T17:24:29.608Z,20.60
2018-06-05T17:26:59.730Z,20.60
2018-06-05T17:29:29.880Z,20.60
2018-06-05T17:31:59.973Z,20.50
2018-06-05T17:34:30.104Z,20.50
2018-06-05T17:37:00.232Z,20.50
2018-06-05T17:39:30.354Z,20.50
2018-06-05T17:42:00.134Z,20.50
2018-06-05T17:44:30.178Z,20.40
2018-06-05T17:47:00.300Z,20.40
2018-06-05T17:49:30.442Z,20.40
2018-06-05T17:52:00.562Z,20.30
2018-06-05T17:54:30.675Z,20.40
2018-06-05T17:57:00.792Z,20.20
2018-06-05T17:59:30.954Z,20.20
2018-06-05T18:02:01.188Z,20.00
2018-06-05T18:04:31.277Z,19.90
2018-06-05T18:07:01.433Z,19.80
2018-06-05T18:09:31.545Z,19.80
2018-06-05T18:12:01.696Z,19.80
2018-06-05T18:14:31.475Z,19.70
2018-06-05T18:17:01.460Z,19.60
2018-06-05T18:19:31.583Z,19.60
2018-06-05T18:22:01.668Z,19.50
2018-06-05T18:24:31.748Z,19.40
2018-06-05T18:27:01.869Z,19.40
2018-06-05T18:29:32.025Z,19.30
2018-06-05T18:32:02.072Z,19.20
2018-06-05T18:34:32.185Z,19.20
2018-06-05T18:37:02.375Z,19.10
2018-06-05T18:39:32.468Z,19.00
2018-06-05T18:42:02.556Z,19.00
2018-06-05T18:44:32.668Z,18.90
2018-06-05T18:47:02.801Z,18.80
2018-06-05T18:49:32.908Z,18.70
2018-06-05T18:52:03.028Z,18.60
2018-06-05T18:54:33.120Z,18.60
2018-06-05T18:57:03.228Z,18.60
2018-06-05T18:59:33.319Z,18.50
2018-06-05T19:02:03.424Z,18.40
2018-06-05T19:04:33.533Z,18.40
2018-06-05T19:07:03.655Z,18.30
2018-06-05T19:09:33.758Z,18.30
2018-06-05T19:12:04.028Z,18.30
2018-06-05T19:14:34.137Z,18.10
2018-06-05T19:17:04.240Z,18.10
2018-06-05T19:19:34.341Z,18.00
2018-06-05T19:22:04.495Z,18.00
2018-06-05T19:24:34.654Z,17.90
2018-06-05T19:27:04.811Z,17.80
2018-06-05T19:29:35.004Z,17.80
2018-06-05T19:32:05.068Z,17.80
2018-06-05T19:34:35.172Z,17.80
2018-06-05T19:37:05.289Z,17.60
2018-06-05T19:39:36.313Z,17.60
2018-06-05T19:42:06.559Z,17.50
2018-06-05T19:44:36.662Z,17.50
2018-06-05T19:47:06.797Z,17.50
2018-06-05T19:49:37.010Z,17.50
2018-06-05T19:52:07.177Z,17.40
2018-06-05T19:54:37.385Z,17.30
2018-06-05T19:57:07.504Z,17.30
2018-06-05T19:59:37.593Z,17.30
2018-06-05T20:02:07.719Z,17.20
2018-06-05T20:04:37.820Z,17.20
2018-06-05T20:07:07.929Z,17.10
2018-06-05T20:09:38.024Z,17.10
2018-06-05T20:12:08.132Z,17.10
2018-06-05T20:14:38.224Z,17.00
2018-06-05T20:17:08.375Z,16.90
2018-06-05T20:19:38.486Z,17.10
2018-06-05T20:22:08.628Z,17.00
2018-06-05T20:24:38.736Z,16.90
2018-06-05T20:27:08.817Z,16.90
2018-06-05T20:29:38.998Z,16.90
2018-06-05T20:32:09.084Z,16.90
2018-06-05T20:34:39.218Z,16.90
2018-06-05T20:37:10.684Z,16.90
2018-06-05T20:39:40.772Z,16.80
2018-06-05T20:42:10.878Z,16.70
2018-06-05T20:44:40.996Z,16.60
2018-06-05T20:47:11.064Z,16.70
2018-06-05T20:49:41.267Z,16.60
2018-06-05T20:52:11.357Z,16.50
2018-06-05T20:54:41.452Z,16.50
2018-06-05T20:57:11.674Z,16.40
2018-06-05T20:59:41.767Z,16.40
2018-06-05T21:02:11.953Z,16.40
2018-06-05T21:04:42.033Z,16.30
2018-06-05T21:07:12.152Z,16.20
2018-06-05T21:09:42.255Z,16.20
2018-06-05T21:12:12.350Z,16.40
2018-06-05T21:14:42.484Z,16.30
2018-06-05T21:17:12.777Z,16.30
2018-06-05T21:19:42.888Z,16.30
2018-06-05T21:22:13.074Z,16.50
2018-06-05T21:24:43.251Z,16.30
2018-06-05T21:27:13.361Z,16.20
2018-06-05T21:29:43.479Z,16.20
2018-06-05T21:32:13.588Z,16.00
2018-06-05T21:34:43.712Z,16.00
2018-06-05T21:37:13.873Z,15.80
2018-06-05T21:39:43.988Z,15.80
2018-06-05T21:42:14.101Z,15.90
2018-06-05T21:44:44.198Z,15.90
2018-06-05T21:47:14.988Z,15.90
2018-06-05T21:49:45.112Z,15.90
2018-06-05T21:52:15.213Z,15.70
2018-06-05T21:54:45.396Z,15.70
2018-06-05T21:57:15.448Z,15.70
2018-06-05T21:59:45.587Z,15.60
2018-06-05T22:02:15.408Z,15.60
2018-06-05T22:04:45.456Z,15.60
2018-06-05T22:07:15.546Z,15.60
2018-06-05T22:09:49.825Z,15.60
2018-06-05T22:12:19.900Z,15.50
2018-06-05T22:14:50.014Z,15.50
2018-06-05T22:17:20.080Z,15.50
2018-06-05T22:19:50.190Z,15.40
2018-06-05T22:22:20.272Z,15.30
2018-06-05T22:24:50.351Z,15.30
2018-06-05T22:27:20.428Z,15.30
2018-06-05T22:29:50.524Z,15.30
2018-06-05T22:32:20.600Z,15.20
2018-06-05T22:34:50.679Z,15.30
2018-06-05T22:37:20.813Z,15.30
2018-06-05T22:39:50.602Z,15.40
2018-06-05T22:42:20.594Z,15.30
2018-06-05T22:44:50.674Z,15.30
2018-06-05T22:47:20.752Z,15.40
2018-06-05T22:49:50.921Z,15.50
2018-06-05T22:52:21.044Z,15.50
2018-06-05T22:54:51.319Z,15.50
2018-06-05T22:57:21.453Z,15.80
2018-06-05T22:59:51.516Z,15.80
2018-06-05T23:02:21.733Z,15.80
2018-06-05T23:04:51.823Z,15.80
2018-06-05T23:07:21.898Z,15.70
2018-06-05T23:09:52.006Z,15.70
2018-06-05T23:12:22.105Z,15.70
2018-06-05T23:14:52.184Z,15.70
2018-06-05T23:17:22.278Z,15.70
2018-06-05T23:19:52.374Z,15.70
2018-06-05T23:22:22.465Z,15.70
2018-06-05T23:24:52.549Z,15.90
2018-06-05T23:27:22.671Z,15.90
2018-06-05T23:29:52.751Z,15.80
2018-06-05T23:32:22.836Z,15.90
2018-06-05T23:34:52.920Z,15.90
2018-06-05T23:37:23.013Z,15.90
2018-06-05T23:39:53.108Z,16.00
2018-06-05T23:42:23.214Z,16.00
2018-06-05T23:44:53.292Z,15.90
2018-06-05T23:47:23.357Z,16.00
2018-06-05T23:49:53.429Z,16.10
2018-06-05T23:52:23.504Z,16.10
2018-06-05T23:54:53.284Z,16.20
2018-06-05T23:57:23.275Z,16.10
2018-06-05T23:59:53.378Z,16.00
